sensor_id;sensor_type;location;lat;lon;timestamp;P1;durP1;ratioP1;P2;durP2;ratioP2
63534;SDS011;55128;50.230;18.944;2023-12-22T00:02:45;9.32;;;1.95;;
63534;SDS011;55128;50.230;18.944;2023-12-22T00:07:46;9.85;;;2.38;;
63534;SDS011;55128;50.230;18.944;2023-12-22T00:12:46;6.15;;;1.85;;
63534;SDS011;55128;50.230;18.944;2023-12-22T00:17:47;5.37;;;1.53;;
63534;SDS011;55128;50.230;18.944;2023-12-22T00:22:47;7.03;;;2.33;;
63534;SDS011;55128;50.230;18.944;2023-12-22T00:27:48;7.83;;;1.60;;
63534;SDS011;55128;50.230;18.944;2023-12-22T00:32:48;6.78;;;1.75;;
63534;SDS011;55128;50.230;18.944;2023-12-22T00:37:48;7.07;;;1.87;;
63534;SDS011;55128;50.230;18.944;2023-12-22T00:42:48;8.40;;;2.10;;
63534;SDS011;55128;50.230;18.944;2023-12-22T00:47:49;9.73;;;2.03;;
63534;SDS011;55128;50.230;18.944;2023-12-22T00:52:49;5.32;;;2.08;;
63534;SDS011;55128;50.230;18.944;2023-12-22T00:57:49;7.43;;;1.47;;
63534;SDS011;55128;50.230;18.944;2023-12-22T01:02:50;5.38;;;1.52;;
63534;SDS011;55128;50.230;18.944;2023-12-22T01:07:50;5.25;;;1.50;;
63534;SDS011;55128;50.230;18.944;2023-12-22T01:12:50;5.43;;;1.40;;
63534;SDS011;55128;50.230;18.944;2023-12-22T01:17:51;5.00;;;1.00;;
63534;SDS011;55128;50.230;18.944;2023-12-22T01:22:51;4.82;;;1.30;;
63534;SDS011;55128;50.230;18.944;2023-12-22T01:27:51;7.90;;;1.60;;
63534;SDS011;55128;50.230;18.944;2023-12-22T01:32:52;4.72;;;1.08;;
63534;SDS011;55128;50.230;18.944;2023-12-22T01:37:53;4.72;;;1.30;;
63534;SDS011;55128;50.230;18.944;2023-12-22T01:42:54;5.47;;;1.40;;
63534;SDS011;55128;50.230;18.944;2023-12-22T01:47:55;3.92;;;0.95;;
63534;SDS011;55128;50.230;18.944;2023-12-22T01:52:55;4.30;;;1.00;;
63534;SDS011;55128;50.230;18.944;2023-12-22T01:57:56;3.67;;;0.85;;
63534;SDS011;55128;50.230;18.944;2023-12-22T02:02:56;5.97;;;0.90;;
63534;SDS011;55128;50.230;18.944;2023-12-22T02:07:57;4.35;;;1.10;;
63534;SDS011;55128;50.230;18.944;2023-12-22T02:12:58;5.13;;;1.33;;
63534;SDS011;55128;50.230;18.944;2023-12-22T02:17:59;9.07;;;1.63;;
63534;SDS011;55128;50.230;18.944;2023-12-22T02:23:06;7.53;;;1.20;;
63534;SDS011;55128;50.230;18.944;2023-12-22T02:28:07;6.35;;;1.10;;
63534;SDS011;55128;50.230;18.944;2023-12-22T02:33:10;5.30;;;1.50;;
63534;SDS011;55128;50.230;18.944;2023-12-22T02:38:15;5.50;;;1.38;;
63534;SDS011;55128;50.230;18.944;2023-12-22T02:43:16;4.63;;;1.05;;
63534;SDS011;55128;50.230;18.944;2023-12-22T02:48:17;2.70;;;0.90;;
63534;SDS011;55128;50.230;18.944;2023-12-22T02:53:18;6.78;;;1.38;;
63534;SDS011;55128;50.230;18.944;2023-12-22T02:58:19;7.43;;;1.23;;
63534;SDS011;55128;50.230;18.944;2023-12-22T03:03:19;4.95;;;1.35;;
63534;SDS011;55128;50.230;18.944;2023-12-22T03:08:19;9.00;;;1.25;;
63534;SDS011;55128;50.230;18.944;2023-12-22T03:13:20;6.75;;;1.70;;
63534;SDS011;55128;50.230;18.944;2023-12-22T03:18:20;6.03;;;1.10;;
63534;SDS011;55128;50.230;18.944;2023-12-22T03:23:20;8.40;;;1.33;;
63534;SDS011;55128;50.230;18.944;2023-12-22T03:28:21;4.47;;;1.00;;
63534;SDS011;55128;50.230;18.944;2023-12-22T03:33:21;6.82;;;1.60;;
63534;SDS011;55128;50.230;18.944;2023-12-22T03:38:21;7.83;;;2.03;;
63534;SDS011;55128;50.230;18.944;2023-12-22T03:43:21;6.65;;;1.25;;
63534;SDS011;55128;50.230;18.944;2023-12-22T03:48:22;5.97;;;1.40;;
63534;SDS011;55128;50.230;18.944;2023-12-22T03:53:22;6.67;;;1.20;;
63534;SDS011;55128;50.230;18.944;2023-12-22T03:58:23;7.38;;;1.52;;
63534;SDS011;55128;50.230;18.944;2023-12-22T04:03:23;7.53;;;1.50;;
63534;SDS011;55128;50.230;18.944;2023-12-22T04:08:23;4.10;;;1.00;;
63534;SDS011;55128;50.230;18.944;2023-12-22T04:13:24;5.70;;;1.45;;
63534;SDS011;55128;50.230;18.944;2023-12-22T04:18:24;5.72;;;1.25;;
63534;SDS011;55128;50.230;18.944;2023-12-22T04:23:24;6.13;;;1.35;;
63534;SDS011;55128;50.230;18.944;2023-12-22T04:28:25;6.90;;;1.90;;
63534;SDS011;55128;50.230;18.944;2023-12-22T04:33:25;4.10;;;1.53;;
63534;SDS011;55128;50.230;18.944;2023-12-22T04:38:26;3.50;;;0.85;;
63534;SDS011;55128;50.230;18.944;2023-12-22T04:43:26;3.13;;;0.63;;
63534;SDS011;55128;50.230;18.944;2023-12-22T04:48:26;3.67;;;0.90;;
63534;SDS011;55128;50.230;18.944;2023-12-22T04:53:27;2.22;;;0.55;;
63534;SDS011;55128;50.230;18.944;2023-12-22T04:58:27;2.53;;;0.60;;
63534;SDS011;55128;50.230;18.944;2023-12-22T05:03:27;2.45;;;0.60;;
63534;SDS011;55128;50.230;18.944;2023-12-22T05:08:28;1.83;;;0.50;;
63534;SDS011;55128;50.230;18.944;2023-12-22T05:13:28;1.98;;;0.45;;
63534;SDS011;55128;50.230;18.944;2023-12-22T05:18:28;2.70;;;0.65;;
63534;SDS011;55128;50.230;18.944;2023-12-22T05:23:29;1.90;;;0.80;;
63534;SDS011;55128;50.230;18.944;2023-12-22T05:28:29;2.42;;;1.50;;
63534;SDS011;55128;50.230;18.944;2023-12-22T05:33:29;2.08;;;0.98;;
63534;SDS011;55128;50.230;18.944;2023-12-22T05:38:30;4.03;;;2.17;;
63534;SDS011;55128;50.230;18.944;2023-12-22T05:43:30;4.35;;;1.85;;
63534;SDS011;55128;50.230;18.944;2023-12-22T05:48:31;3.97;;;1.77;;
63534;SDS011;55128;50.230;18.944;2023-12-22T05:53:31;7.10;;;1.70;;
63534;SDS011;55128;50.230;18.944;2023-12-22T05:58:31;7.28;;;1.95;;
63534;SDS011;55128;50.230;18.944;2023-12-22T06:03:32;7.85;;;2.25;;
63534;SDS011;55128;50.230;18.944;2023-12-22T06:08:32;10.55;;;2.53;;
63534;SDS011;55128;50.230;18.944;2023-12-22T06:13:32;7.03;;;2.45;;
63534;SDS011;55128;50.230;18.944;2023-12-22T06:18:33;10.65;;;2.38;;
63534;SDS011;55128;50.230;18.944;2023-12-22T06:23:33;7.25;;;1.67;;
63534;SDS011;55128;50.230;18.944;2023-12-22T06:28:33;7.27;;;1.80;;
63534;SDS011;55128;50.230;18.944;2023-12-22T06:33:36;5.88;;;1.45;;
63534;SDS011;55128;50.230;18.944;2023-12-22T06:38:40;9.43;;;3.08;;
63534;SDS011;55128;50.230;18.944;2023-12-22T06:43:41;11.52;;;2.95;;
63534;SDS011;55128;50.230;18.944;2023-12-22T06:48:42;11.63;;;3.83;;
63534;SDS011;55128;50.230;18.944;2023-12-22T06:53:42;18.55;;;3.85;;
63534;SDS011;55128;50.230;18.944;2023-12-22T06:58:42;11.70;;;4.30;;
63534;SDS011;55128;50.230;18.944;2023-12-22T07:03:43;8.95;;;3.17;;
63534;SDS011;55128;50.230;18.944;2023-12-22T07:08:43;10.88;;;4.40;;
63534;SDS011;55128;50.230;18.944;2023-12-22T07:13:44;14.68;;;4.78;;
63534;SDS011;55128;50.230;18.944;2023-12-22T07:18:45;22.00;;;7.10;;
63534;SDS011;55128;50.230;18.944;2023-12-22T07:23:46;15.90;;;6.43;;
63534;SDS011;55128;50.230;18.944;2023-12-22T07:28:46;15.70;;;4.40;;
63534;SDS011;55128;50.230;18.944;2023-12-22T07:33:46;15.35;;;5.00;;
63534;SDS011;55128;50.230;18.944;2023-12-22T07:38:47;19.60;;;6.78;;
63534;SDS011;55128;50.230;18.944;2023-12-22T07:43:47;11.50;;;4.47;;
63534;SDS011;55128;50.230;18.944;2023-12-22T07:48:48;9.47;;;3.97;;
63534;SDS011;55128;50.230;18.944;2023-12-22T07:53:48;10.93;;;4.20;;
63534;SDS011;55128;50.230;18.944;2023-12-22T07:58:49;10.02;;;4.05;;
63534;SDS011;55128;50.230;18.944;2023-12-22T08:03:49;13.20;;;4.47;;
63534;SDS011;55128;50.230;18.944;2023-12-22T08:08:49;10.55;;;4.45;;
63534;SDS011;55128;50.230;18.944;2023-12-22T08:13:49;11.97;;;4.80;;
63534;SDS011;55128;50.230;18.944;2023-12-22T08:18:50;10.48;;;4.40;;
63534;SDS011;55128;50.230;18.944;2023-12-22T08:23:50;10.80;;;4.72;;
63534;SDS011;55128;50.230;18.944;2023-12-22T08:28:51;12.63;;;5.30;;
63534;SDS011;55128;50.230;18.944;2023-12-22T08:33:51;10.80;;;3.67;;
63534;SDS011;55128;50.230;18.944;2023-12-22T08:38:51;10.63;;;4.78;;
63534;SDS011;55128;50.230;18.944;2023-12-22T08:43:52;11.50;;;4.07;;
63534;SDS011;55128;50.230;18.944;2023-12-22T08:48:52;15.70;;;4.70;;
63534;SDS011;55128;50.230;18.944;2023-12-22T08:53:56;8.13;;;2.78;;
63534;SDS011;55128;50.230;18.944;2023-12-22T08:58:56;10.90;;;2.92;;
63534;SDS011;55128;50.230;18.944;2023-12-22T09:03:59;8.25;;;2.83;;
63534;SDS011;55128;50.230;18.944;2023-12-22T09:08:59;8.88;;;2.60;;
63534;SDS011;55128;50.230;18.944;2023-12-22T09:13:59;5.70;;;2.20;;
63534;SDS011;55128;50.230;18.944;2023-12-22T09:18:59;6.45;;;2.03;;
63534;SDS011;55128;50.230;18.944;2023-12-22T09:24:00;7.18;;;2.28;;
63534;SDS011;55128;50.230;18.944;2023-12-22T09:29:00;6.22;;;1.95;;
63534;SDS011;55128;50.230;18.944;2023-12-22T09:34:01;9.70;;;3.13;;
63534;SDS011;55128;50.230;18.944;2023-12-22T09:39:01;6.57;;;2.92;;
63534;SDS011;55128;50.230;18.944;2023-12-22T09:44:02;6.75;;;3.13;;
63534;SDS011;55128;50.230;18.944;2023-12-22T09:49:06;9.55;;;2.65;;
63534;SDS011;55128;50.230;18.944;2023-12-22T09:54:07;6.18;;;2.67;;
63534;SDS011;55128;50.230;18.944;2023-12-22T09:59:10;10.23;;;2.90;;
63534;SDS011;55128;50.230;18.944;2023-12-22T10:04:12;7.32;;;2.85;;
63534;SDS011;55128;50.230;18.944;2023-12-22T10:09:14;6.00;;;2.17;;
63534;SDS011;55128;50.230;18.944;2023-12-22T10:14:16;8.57;;;2.20;;
63534;SDS011;55128;50.230;18.944;2023-12-22T10:19:21;5.90;;;1.92;;
63534;SDS011;55128;50.230;18.944;2023-12-22T10:29:47;6.45;;;2.10;;
63534;SDS011;55128;50.230;18.944;2023-12-22T10:34:51;8.07;;;2.43;;
63534;SDS011;55128;50.230;18.944;2023-12-22T10:39:54;7.43;;;2.78;;
63534;SDS011;55128;50.230;18.944;2023-12-22T10:44:55;4.95;;;2.22;;
63534;SDS011;55128;50.230;18.944;2023-12-22T10:49:56;7.25;;;2.10;;
63534;SDS011;55128;50.230;18.944;2023-12-22T10:54:57;4.75;;;1.77;;
63534;SDS011;55128;50.230;18.944;2023-12-22T10:59:58;4.43;;;1.90;;
63534;SDS011;55128;50.230;18.944;2023-12-22T11:05:05;3.63;;;2.00;;
63534;SDS011;55128;50.230;18.944;2023-12-22T11:10:06;5.78;;;4.10;;
63534;SDS011;55128;50.230;18.944;2023-12-22T11:15:08;6.45;;;3.53;;
63534;SDS011;55128;50.230;18.944;2023-12-22T11:20:10;7.57;;;2.80;;
63534;SDS011;55128;50.230;18.944;2023-12-22T11:25:12;10.30;;;3.97;;
63534;SDS011;55128;50.230;18.944;2023-12-22T11:30:15;10.02;;;4.05;;
63534;SDS011;55128;50.230;18.944;2023-12-22T11:35:17;7.38;;;3.05;;
63534;SDS011;55128;50.230;18.944;2023-12-22T11:40:17;5.18;;;2.50;;
63534;SDS011;55128;50.230;18.944;2023-12-22T11:45:17;6.47;;;2.20;;
63534;SDS011;55128;50.230;18.944;2023-12-22T11:50:31;6.78;;;2.53;;
63534;SDS011;55128;50.230;18.944;2023-12-22T12:00:58;5.18;;;2.10;;
63534;SDS011;55128;50.230;18.944;2023-12-22T12:11:11;3.17;;;1.30;;
63534;SDS011;55128;50.230;18.944;2023-12-22T12:16:21;3.15;;;1.40;;
63534;SDS011;55128;50.230;18.944;2023-12-22T12:21:22;5.45;;;1.40;;
63534;SDS011;55128;50.230;18.944;2023-12-22T12:26:22;5.07;;;1.42;;
63534;SDS011;55128;50.230;18.944;2023-12-22T12:31:35;3.72;;;1.38;;
63534;SDS011;55128;50.230;18.944;2023-12-22T12:41:42;6.63;;;2.45;;
63534;SDS011;55128;50.230;18.944;2023-12-22T12:46:44;4.70;;;1.83;;
63534;SDS011;55128;50.230;18.944;2023-12-22T12:51:46;6.25;;;1.63;;
63534;SDS011;55128;50.230;18.944;2023-12-22T12:56:47;5.50;;;1.52;;
63534;SDS011;55128;50.230;18.944;2023-12-22T13:01:48;6.40;;;1.70;;
63534;SDS011;55128;50.230;18.944;2023-12-22T13:06:49;6.55;;;2.25;;
63534;SDS011;55128;50.230;18.944;2023-12-22T13:11:50;5.10;;;2.40;;
63534;SDS011;55128;50.230;18.944;2023-12-22T13:16:51;8.75;;;2.85;;
63534;SDS011;55128;50.230;18.944;2023-12-22T13:21:56;4.15;;;1.50;;
63534;SDS011;55128;50.230;18.944;2023-12-22T13:27:00;5.18;;;1.48;;
63534;SDS011;55128;50.230;18.944;2023-12-22T13:32:03;7.00;;;2.03;;
63534;SDS011;55128;50.230;18.944;2023-12-22T13:37:04;7.10;;;2.17;;
63534;SDS011;55128;50.230;18.944;2023-12-22T13:42:05;6.97;;;2.35;;
63534;SDS011;55128;50.230;18.944;2023-12-22T13:47:14;2.65;;;1.35;;
63534;SDS011;55128;50.230;18.944;2023-12-22T13:52:28;5.50;;;1.70;;
63534;SDS011;55128;50.230;18.944;2023-12-22T13:57:34;4.88;;;1.55;;
63534;SDS011;55128;50.230;18.944;2023-12-22T14:02:35;6.00;;;1.60;;
63534;SDS011;55128;50.230;18.944;2023-12-22T14:07:35;6.27;;;1.70;;
63534;SDS011;55128;50.230;18.944;2023-12-22T14:12:36;5.63;;;2.30;;
63534;SDS011;55128;50.230;18.944;2023-12-22T14:17:40;7.95;;;2.45;;
63534;SDS011;55128;50.230;18.944;2023-12-22T14:22:44;4.82;;;1.73;;
63534;SDS011;55128;50.230;18.944;2023-12-22T14:27:44;4.55;;;1.35;;
63534;SDS011;55128;50.230;18.944;2023-12-22T14:32:45;5.93;;;1.63;;
63534;SDS011;55128;50.230;18.944;2023-12-22T14:37:45;6.93;;;1.88;;
63534;SDS011;55128;50.230;18.944;2023-12-22T14:42:46;5.22;;;2.17;;
63534;SDS011;55128;50.230;18.944;2023-12-22T14:47:46;7.63;;;2.30;;
63534;SDS011;55128;50.230;18.944;2023-12-22T14:52:47;7.43;;;2.50;;
63534;SDS011;55128;50.230;18.944;2023-12-22T14:57:48;10.10;;;3.10;;
63534;SDS011;55128;50.230;18.944;2023-12-22T15:02:48;8.85;;;3.00;;
63534;SDS011;55128;50.230;18.944;2023-12-22T15:07:49;6.70;;;2.70;;
63534;SDS011;55128;50.230;18.944;2023-12-22T15:12:49;9.13;;;2.90;;
63534;SDS011;55128;50.230;18.944;2023-12-22T15:17:50;6.90;;;2.92;;
63534;SDS011;55128;50.230;18.944;2023-12-22T15:22:51;11.10;;;3.28;;
63534;SDS011;55128;50.230;18.944;2023-12-22T15:27:51;7.25;;;2.33;;
63534;SDS011;55128;50.230;18.944;2023-12-22T15:32:51;5.90;;;2.50;;
63534;SDS011;55128;50.230;18.944;2023-12-22T15:37:52;7.88;;;2.38;;
63534;SDS011;55128;50.230;18.944;2023-12-22T15:42:52;6.57;;;2.63;;
63534;SDS011;55128;50.230;18.944;2023-12-22T15:47:52;6.40;;;2.30;;
63534;SDS011;55128;50.230;18.944;2023-12-22T15:52:53;7.05;;;2.42;;
63534;SDS011;55128;50.230;18.944;2023-12-22T15:57:53;6.77;;;2.20;;
63534;SDS011;55128;50.230;18.944;2023-12-22T16:02:53;6.90;;;1.90;;
63534;SDS011;55128;50.230;18.944;2023-12-22T16:07:54;6.15;;;2.40;;
63534;SDS011;55128;50.230;18.944;2023-12-22T16:12:58;6.90;;;2.25;;
63534;SDS011;55128;50.230;18.944;2023-12-22T16:17:58;7.55;;;2.38;;
63534;SDS011;55128;50.230;18.944;2023-12-22T16:23:01;8.55;;;2.90;;
63534;SDS011;55128;50.230;18.944;2023-12-22T16:28:02;8.48;;;3.03;;
63534;SDS011;55128;50.230;18.944;2023-12-22T16:33:04;6.82;;;2.90;;
63534;SDS011;55128;50.230;18.944;2023-12-22T16:38:04;8.93;;;2.90;;
63534;SDS011;55128;50.230;18.944;2023-12-22T16:43:05;11.85;;;3.25;;
63534;SDS011;55128;50.230;18.944;2023-12-22T16:48:05;9.63;;;2.93;;
63534;SDS011;55128;50.230;18.944;2023-12-22T16:53:06;8.80;;;2.75;;
63534;SDS011;55128;50.230;18.944;2023-12-22T16:58:06;7.18;;;2.55;;
63534;SDS011;55128;50.230;18.944;2023-12-22T17:03:08;7.22;;;3.08;;
63534;SDS011;55128;50.230;18.944;2023-12-22T17:08:08;9.43;;;3.28;;
63534;SDS011;55128;50.230;18.944;2023-12-22T17:13:10;9.77;;;3.35;;
63534;SDS011;55128;50.230;18.944;2023-12-22T17:18:10;8.73;;;3.00;;
63534;SDS011;55128;50.230;18.944;2023-12-22T17:23:10;10.40;;;2.90;;
63534;SDS011;55128;50.230;18.944;2023-12-22T17:28:11;11.82;;;3.22;;
63534;SDS011;55128;50.230;18.944;2023-12-22T17:33:11;10.57;;;3.83;;
63534;SDS011;55128;50.230;18.944;2023-12-22T17:38:11;11.23;;;3.53;;
63534;SDS011;55128;50.230;18.944;2023-12-22T17:43:12;8.23;;;4.32;;
63534;SDS011;55128;50.230;18.944;2023-12-22T17:48:12;10.52;;;3.70;;
63534;SDS011;55128;50.230;18.944;2023-12-22T17:53:13;8.55;;;3.40;;
63534;SDS011;55128;50.230;18.944;2023-12-22T17:58:14;7.57;;;3.15;;
63534;SDS011;55128;50.230;18.944;2023-12-22T18:03:15;8.13;;;2.80;;
63534;SDS011;55128;50.230;18.944;2023-12-22T18:08:15;8.97;;;3.13;;
63534;SDS011;55128;50.230;18.944;2023-12-22T18:13:15;8.50;;;3.00;;
63534;SDS011;55128;50.230;18.944;2023-12-22T18:18:16;8.77;;;3.25;;
63534;SDS011;55128;50.230;18.944;2023-12-22T18:23:16;8.38;;;3.00;;
63534;SDS011;55128;50.230;18.944;2023-12-22T18:28:17;10.30;;;2.80;;
63534;SDS011;55128;50.230;18.944;2023-12-22T18:33:17;6.68;;;2.47;;
63534;SDS011;55128;50.230;18.944;2023-12-22T18:43:22;7.90;;;2.33;;
63534;SDS011;55128;50.230;18.944;2023-12-22T18:48:22;8.77;;;2.63;;
63534;SDS011;55128;50.230;18.944;2023-12-22T18:53:23;7.88;;;3.72;;
63534;SDS011;55128;50.230;18.944;2023-12-22T18:58:25;8.23;;;2.88;;
63534;SDS011;55128;50.230;18.944;2023-12-22T19:03:28;6.60;;;2.58;;
63534;SDS011;55128;50.230;18.944;2023-12-22T19:08:29;9.00;;;3.28;;
63534;SDS011;55128;50.230;18.944;2023-12-22T19:13:29;6.95;;;3.40;;
63534;SDS011;55128;50.230;18.944;2023-12-22T19:18:30;10.70;;;3.42;;
63534;SDS011;55128;50.230;18.944;2023-12-22T19:23:30;6.85;;;2.83;;
63534;SDS011;55128;50.230;18.944;2023-12-22T19:28:32;8.25;;;2.85;;
63534;SDS011;55128;50.230;18.944;2023-12-22T19:33:33;5.22;;;2.38;;
63534;SDS011;55128;50.230;18.944;2023-12-22T19:38:33;9.83;;;2.83;;
63534;SDS011;55128;50.230;18.944;2023-12-22T19:43:34;8.98;;;2.90;;
63534;SDS011;55128;50.230;18.944;2023-12-22T19:48:35;6.57;;;3.10;;
63534;SDS011;55128;50.230;18.944;2023-12-22T19:53:36;9.27;;;3.28;;
63534;SDS011;55128;50.230;18.944;2023-12-22T19:58:36;9.05;;;3.10;;
63534;SDS011;55128;50.230;18.944;2023-12-22T20:03:36;15.37;;;4.17;;
63534;SDS011;55128;50.230;18.944;2023-12-22T20:08:37;11.80;;;3.70;;
63534;SDS011;55128;50.230;18.944;2023-12-22T20:13:37;10.23;;;3.43;;
63534;SDS011;55128;50.230;18.944;2023-12-22T20:18:40;10.30;;;3.22;;
63534;SDS011;55128;50.230;18.944;2023-12-22T20:23:41;6.72;;;2.97;;
63534;SDS011;55128;50.230;18.944;2023-12-22T20:28:41;8.60;;;3.23;;
63534;SDS011;55128;50.230;18.944;2023-12-22T20:33:42;10.07;;;3.40;;
63534;SDS011;55128;50.230;18.944;2023-12-22T20:38:42;7.28;;;2.78;;
63534;SDS011;55128;50.230;18.944;2023-12-22T20:43:42;9.10;;;2.97;;
63534;SDS011;55128;50.230;18.944;2023-12-22T20:48:43;6.18;;;2.20;;
63534;SDS011;55128;50.230;18.944;2023-12-22T20:53:43;5.55;;;2.03;;
63534;SDS011;55128;50.230;18.944;2023-12-22T20:58:43;9.40;;;2.78;;
63534;SDS011;55128;50.230;18.944;2023-12-22T21:03:44;4.90;;;2.10;;
63534;SDS011;55128;50.230;18.944;2023-12-22T21:08:44;7.05;;;2.50;;
63534;SDS011;55128;50.230;18.944;2023-12-22T21:13:45;5.85;;;2.10;;
63534;SDS011;55128;50.230;18.944;2023-12-22T21:18:47;8.40;;;2.85;;
63534;SDS011;55128;50.230;18.944;2023-12-22T21:23:48;10.68;;;2.75;;
63534;SDS011;55128;50.230;18.944;2023-12-22T21:28:48;8.15;;;3.70;;
63534;SDS011;55128;50.230;18.944;2023-12-22T21:33:49;6.60;;;2.00;;
63534;SDS011;55128;50.230;18.944;2023-12-22T21:38:49;9.50;;;2.20;;
63534;SDS011;55128;50.230;18.944;2023-12-22T21:43:52;6.80;;;2.67;;
63534;SDS011;55128;50.230;18.944;2023-12-22T21:48:52;6.68;;;2.45;;
63534;SDS011;55128;50.230;18.944;2023-12-22T21:53:52;7.50;;;2.78;;
63534;SDS011;55128;50.230;18.944;2023-12-22T21:58:53;7.00;;;2.83;;
63534;SDS011;55128;50.230;18.944;2023-12-22T22:03:54;7.00;;;3.25;;
63534;SDS011;55128;50.230;18.944;2023-12-22T22:08:54;14.18;;;3.85;;
63534;SDS011;55128;50.230;18.944;2023-12-22T22:13:55;8.80;;;3.05;;
63534;SDS011;55128;50.230;18.944;2023-12-22T22:18:55;8.70;;;2.90;;
63534;SDS011;55128;50.230;18.944;2023-12-22T22:23:55;9.63;;;2.55;;
63534;SDS011;55128;50.230;18.944;2023-12-22T22:28:56;7.22;;;2.15;;
63534;SDS011;55128;50.230;18.944;2023-12-22T22:34:00;6.60;;;2.42;;
63534;SDS011;55128;50.230;18.944;2023-12-22T22:39:00;10.40;;;3.03;;
63534;SDS011;55128;50.230;18.944;2023-12-22T22:44:00;12.93;;;3.22;;
63534;SDS011;55128;50.230;18.944;2023-12-22T22:49:01;4.78;;;2.15;;
63534;SDS011;55128;50.230;18.944;2023-12-22T22:54:01;5.55;;;1.92;;
63534;SDS011;55128;50.230;18.944;2023-12-22T22:59:01;7.20;;;1.80;;
63534;SDS011;55128;50.230;18.944;2023-12-22T23:04:03;6.95;;;2.20;;
63534;SDS011;55128;50.230;18.944;2023-12-22T23:09:03;9.43;;;2.13;;
63534;SDS011;55128;50.230;18.944;2023-12-22T23:14:06;5.45;;;1.75;;
63534;SDS011;55128;50.230;18.944;2023-12-22T23:19:07;9.55;;;2.15;;
63534;SDS011;55128;50.230;18.944;2023-12-22T23:24:07;9.65;;;2.40;;
63534;SDS011;55128;50.230;18.944;2023-12-22T23:29:07;5.55;;;2.15;;
63534;SDS011;55128;50.230;18.944;2023-12-22T23:34:08;7.95;;;2.42;;
63534;SDS011;55128;50.230;18.944;2023-12-22T23:39:09;7.10;;;2.22;;
63534;SDS011;55128;50.230;18.944;2023-12-22T23:44:09;7.65;;;2.45;;
63534;SDS011;55128;50.230;18.944;2023-12-22T23:49:10;7.35;;;1.65;;
63534;SDS011;55128;50.230;18.944;2023-12-22T23:54:11;5.15;;;2.00;;
63534;SDS011;55128;50.230;18.944;2023-12-22T23:59:11;8.87;;;2.20;;
